Time;durP1;ratioP1;P1;durP2;ratioP2;P2;SDS_P1;SDS_P2;PMS_P1;PMS_P2;Temp;Humidity;BMP_temperature;BMP_pressure;BME280_temperature;BME280_humidity;BME280_pressure;Samples;Min_cycle;Max_cycle;Signal;HPM_P1;HPM_P2
2022/07/01 05:28:41;;;;;;;;;2.75;2.75;;;;;15.96;63.01;101718.88;2396533;28;45562;-85
2022/07/01 05:29:53;;;;;;;;;2.75;2.75;;;;;15.97;62.48;101710.03;2401867;28;46217;-85
2022/07/01 05:31:03;;;;;;;;;2.50;2.50;;;;;15.98;62.74;101714.38;2402751;28;45295;-86
2022/07/01 05:32:14;;;;;;;;;3.00;2.00;;;;;15.99;62.58;101707.28;2401929;28;46210;-85
2022/07/01 05:33:26;;;;;;;;;2.25;2.25;;;;;16.01;62.88;101709.88;2402296;28;45169;-86
2022/07/01 05:34:38;;;;;;;;;2.50;2.25;;;;;16.03;62.62;101710.66;2411113;28;45412;-86
2022/07/01 05:35:48;;;;;;;;;4.00;3.00;;;;;16.05;62.32;101712.38;2411408;28;44673;-85
2022/07/01 05:36:58;;;;;;;;;3.75;2.00;;;;;16.06;62.53;101707.94;2401949;28;46591;-85
2022/07/01 05:38:09;;;;;;;;;2.00;2.00;;;;;16.08;62.56;101706.06;2402321;28;44674;-85
2022/07/01 05:39:19;;;;;;;;;5.00;2.00;;;;;16.10;62.41;101712.16;2401994;28;45444;-85
2022/07/01 05:40:29;;;;;;;;;2.75;2.00;;;;;16.12;62.60;101715.66;2401394;28;44751;-85
2022/07/01 05:41:40;;;;;;;;;3.00;2.00;;;;;16.15;63.07;101718.16;2400658;28;45450;-85
2022/07/01 05:42:50;;;;;;;;;2.50;2.50;;;;;16.19;62.38;101717.13;2402037;28;45347;-85
2022/07/01 05:44:01;;;;;;;;;2.00;2.00;;;;;16.22;62.21;101715.28;2401211;28;46574;-85
2022/07/01 05:45:11;;;;;;;;;2.75;2.00;;;;;16.21;61.96;101711.75;2401617;28;45382;-85
2022/07/01 05:46:22;;;;;;;;;2.75;2.75;;;;;16.23;62.01;101709.03;2400990;28;45445;-85
2022/07/01 05:47:32;;;;;;;;;2.00;2.00;;;;;16.24;61.74;101716.06;2401134;28;44693;-85
2022/07/01 05:48:42;;;;;;;;;2.00;2.00;;;;;16.23;61.77;101723.16;2402377;28;46651;-85
2022/07/01 05:49:53;;;;;;;;;3.00;3.00;;;;;16.25;61.75;101717.81;2401958;28;45268;-85
2022/07/01 05:51:03;;;;;;;;;2.00;2.00;;;;;16.27;61.76;101723.91;2402146;28;45476;-85
2022/07/01 05:52:13;;;;;;;;;2.00;2.00;;;;;16.28;62.08;101721.19;2401917;28;44767;-85
2022/07/01 05:53:24;;;;;;;;;3.00;1.00;;;;;16.30;61.48;101715.78;2402021;28;45383;-86
2022/07/01 05:54:34;;;;;;;;;1.25;1.00;;;;;16.32;61.84;101721.94;2401454;28;45216;-85
2022/07/01 05:55:45;;;;;;;;;2.50;1.50;;;;;16.34;62.02;101722.72;2400980;28;45645;-85
2022/07/01 05:56:55;;;;;;;;;2.00;2.00;;;;;16.37;61.23;101724.38;2402359;28;44603;-85
2022/07/01 05:58:08;;;;;;;;;1.75;1.00;;;;;16.37;61.27;101721.72;2403260;28;45260;-85
2022/07/01 05:59:18;;;;;;;;;1.25;1.25;;;;;16.38;61.37;101718.13;2403724;28;45176;-85
2022/07/01 06:00:28;;;;;;;;;2.75;2.00;;;;;16.40;61.25;101725.09;2403370;28;45398;-85
2022/07/01 06:01:39;;;;;;;;;3.50;1.50;;;;;16.43;61.45;101729.41;2412178;28;45634;-84
2022/07/01 06:02:52;;;;;;;;;3.00;2.00;;;;;16.44;61.03;101725.84;2409647;28;46986;-85
2022/07/01 06:04:02;;;;;;;;;2.50;2.25;;;;;16.47;61.12;101732.81;2402570;28;45257;-85
2022/07/01 06:05:13;;;;;;;;;1.50;1.50;;;;;16.49;61.23;101720.34;2403969;28;45376;-85
2022/07/01 06:06:23;;;;;;;;;3.00;2.50;;;;;16.52;61.24;101730.81;2403476;28;45296;-85
2022/07/01 06:07:34;;;;;;;;;3.00;2.00;;;;;16.54;60.67;101728.97;2403214;28;46427;-85
2022/07/01 06:08:44;;;;;;;;;1.00;1.00;;;;;16.54;60.94;101724.50;2403839;28;45363;-85
2022/07/01 06:09:55;;;;;;;;;1.25;1.25;;;;;16.57;60.58;101730.63;2413053;28;47394;-86
2022/07/01 06:11:05;;;;;;;;;2.00;1.25;;;;;16.58;60.62;101727.91;2412186;28;45252;-85
2022/07/01 06:12:16;;;;;;;;;3.00;1.00;;;;;16.61;60.60;101726.91;2403358;28;45442;-85
2022/07/01 06:13:28;;;;;;;;;2.50;1.75;;;;;16.61;61.28;101727.78;2403567;28;45227;-86
2022/07/01 06:14:39;;;;;;;;;2.50;2.50;;;;;16.66;61.24;101727.59;2402836;28;45438;-85
2022/07/01 06:15:49;;;;;;;;;2.00;2.00;;;;;16.71;61.09;101725.59;2403807;28;44730;-85
2022/07/01 06:16:59;;;;;;;;;1.00;1.00;;;;;16.73;61.19;101728.16;2403268;28;45714;-86
2022/07/01 06:18:10;;;;;;;;;3.25;1.50;;;;;16.75;60.59;101726.31;2403517;28;45354;-85
2022/07/01 06:19:20;;;;;;;;;3.00;2.00;;;;;16.79;60.45;101733.19;2402710;28;46259;-85
2022/07/01 06:20:30;;;;;;;;;2.50;1.00;;;;;16.83;60.30;101737.47;2411505;28;45412;-85
2022/07/01 06:21:41;;;;;;;;;1.00;1.00;;;;;16.86;59.97;101729.38;2409366;28;46322;-85
2022/07/01 06:22:51;;;;;;;;;1.00;1.00;;;;;16.91;60.08;101736.25;2404139;28;44638;-85
2022/07/01 06:24:01;;;;;;;;;0.50;0.50;;;;;16.94;60.31;101739.63;2402406;28;48137;-85
2022/07/01 06:25:12;;;;;;;;;1.00;1.00;;;;;16.97;60.50;101735.97;2403675;28;45427;-85
2022/07/01 06:26:23;;;;;;;;;1.25;1.25;;;;;17.01;60.18;101732.28;2403410;28;46561;-84
2022/07/01 06:27:39;;;;;;;;;2.00;1.00;;;;;17.05;59.65;101736.50;2403302;28;44590;-83
2022/07/01 06:28:49;;;;;;;;;1.75;1.00;;;;;17.08;59.82;101727.53;2408076;28;46697;-84
2022/07/01 06:30:00;;;;;;;;;0.75;0.75;;;;;17.15;59.89;101746.72;2418482;28;45445;-84
2022/07/01 06:31:10;;;;;;;;;2.50;2.50;;;;;17.17;60.03;101740.44;2410245;28;46238;-84
2022/07/01 06:32:20;;;;;;;;;1.25;1.00;;;;;17.20;59.69;101737.66;2403921;28;45401;-86
2022/07/01 06:33:31;;;;;;;;;1.00;1.00;;;;;17.23;60.03;101738.44;2421667;28;47202;-86
2022/07/01 06:34:42;;;;;;;;;1.25;1.25;;;;;17.27;59.11;101740.00;2417867;28;45278;-88
2022/07/01 06:35:52;;;;;;;;;4.00;0.75;;;;;17.28;58.31;101734.66;2415668;28;46908;-86
2022/07/01 06:37:03;;;;;;;;;1.25;1.00;;;;;17.28;58.56;101745.28;2413548;28;44741;-86
2022/07/01 06:38:13;;;;;;;;;1.00;1.00;;;;;17.29;58.32;101739.00;2422173;28;47144;-86
2022/07/01 06:39:24;;;;;;;;;2.50;0.75;;;;;17.27;58.03;101738.22;2419827;28;44638;-86
2022/07/01 06:40:34;;;;;;;;;2.25;2.00;;;;;17.28;58.22;101739.97;2412459;28;45275;-86
2022/07/01 06:41:44;;;;;;;;;1.00;0.00;;;;;17.29;57.76;101735.50;2402574;28;46198;-86
2022/07/01 06:42:55;;;;;;;;;4.00;1.00;;;;;17.30;57.54;101739.88;2402427;28;46229;-86
2022/07/01 06:44:05;;;;;;;;;0.00;0.00;;;;;17.30;57.17;101738.09;2403455;28;45224;-86
2022/07/01 06:45:16;;;;;;;;;0.50;0.50;;;;;17.31;57.42;101742.47;2402930;28;48318;-86
2022/07/01 06:46:27;;;;;;;;;1.25;1.00;;;;;17.33;57.67;101747.72;2403790;28;45346;-86
2022/07/01 06:47:38;;;;;;;;;0.50;0.50;;;;;17.34;57.53;101745.91;2413325;28;45356;-83
2022/07/01 06:48:48;;;;;;;;;2.50;0.00;;;;;17.35;56.79;101750.28;2413241;28;45432;-83
2022/07/01 06:49:59;;;;;;;;;0.50;0.50;;;;;17.36;57.02;101747.56;2402825;28;47639;-83
2022/07/01 06:51:09;;;;;;;;;1.00;0.00;;;;;17.38;57.18;101758.13;2402369;28;44735;-83
2022/07/01 06:52:19;;;;;;;;;1.50;0.00;;;;;17.38;56.87;101750.16;2403335;28;46296;-83
2022/07/01 06:53:30;;;;;;;;;0.00;0.00;;;;;17.39;56.25;101751.88;2403870;28;44764;-83
2022/07/01 06:54:40;;;;;;;;;1.75;0.00;;;;;17.40;56.11;101753.59;2403584;28;45467;-83
2022/07/01 06:55:50;;;;;;;;;2.00;0.25;;;;;17.41;56.19;101750.00;2403474;28;45443;-83
2022/07/01 06:57:01;;;;;;;;;2.00;0.25;;;;;17.42;55.77;101754.41;2402791;28;48373;-83
2022/07/01 06:58:11;;;;;;;;;1.50;0.25;;;;;17.45;55.70;101756.91;2402757;28;45272;-83
2022/07/01 06:59:21;;;;;;;;;0.25;0.25;;;;;17.44;55.21;101752.53;2402832;28;47675;-84
2022/07/01 07:00:32;;;;;;;;;1.75;1.00;;;;;17.43;55.40;101751.66;2403180;28;44696;-84
2022/07/01 07:01:42;;;;;;;;;0.00;0.00;;;;;17.43;56.14;101751.66;2403693;28;45448;-85
2022/07/01 07:02:53;;;;;;;;;1.00;1.00;;;;;17.48;56.30;101755.91;2402883;28;45283;-84
2022/07/01 07:04:03;;;;;;;;;1.50;1.50;;;;;17.49;56.04;101760.28;2402594;28;47027;-84
2022/07/01 07:05:13;;;;;;;;;2.50;2.00;;;;;17.51;55.74;101761.94;2414872;28;45340;-84
2022/07/01 07:06:24;;;;;;;;;2.00;1.00;;;;;17.51;55.66;101751.31;2409575;28;47019;-84
2022/07/01 07:07:34;;;;;;;;;1.00;0.00;;;;;17.54;55.67;101753.81;2412622;28;44733;-84
2022/07/01 07:08:45;;;;;;;;;0.50;0.50;;;;;17.57;55.83;101759.94;2414804;28;47455;-84
2022/07/01 07:09:56;;;;;;;;;0.75;0.00;;;;;17.58;55.42;101759.00;2410099;28;45219;-84
2022/07/01 07:11:08;;;;;;;;;0.25;0.00;;;;;17.59;55.67;101752.75;2412320;28;47121;-84
2022/07/01 07:12:19;;;;;;;;;0.50;0.00;;;;;17.61;55.75;101749.09;2420591;28;45291;-84
2022/07/01 07:13:29;;;;;;;;;0.25;0.25;;;;;17.66;55.98;101751.53;2419229;28;45613;-84
2022/07/01 07:14:39;;;;;;;;;0.00;0.00;;;;;17.68;55.92;101757.63;2415633;28;45364;-84
2022/07/01 07:15:50;;;;;;;;;1.00;0.00;;;;;17.68;55.28;101760.28;2412386;28;47067;-84
2022/07/01 07:17:00;;;;;;;;;2.00;0.00;;;;;17.71;54.79;101760.16;2406400;28;44797;-84
2022/07/01 07:18:11;;;;;;;;;0.00;0.00;;;;;17.71;54.70;101749.50;2409692;28;45423;-85
2022/07/01 07:19:21;;;;;;;;;0.25;0.00;;;;;17.74;54.36;101751.16;2405325;28;45498;-84
2022/07/01 07:20:32;;;;;;;;;0.00;0.00;;;;;17.75;54.36;101756.41;2407531;28;46294;-84
2022/07/01 07:21:42;;;;;;;;;0.00;0.00;;;;;17.77;53.95;101759.00;2412323;28;45290;-84
2022/07/01 07:22:53;;;;;;;;;0.00;0.00;;;;;17.80;54.59;101755.34;2409731;28;45254;-84
2022/07/01 07:24:04;;;;;;;;;0.00;0.00;;;;;17.82;54.39;101754.34;2403448;28;45387;-84
2022/07/01 07:25:14;;;;;;;;;0.00;0.00;;;;;17.84;53.44;101748.94;2407880;28;46405;-84
2022/07/01 07:26:25;;;;;;;;;0.00;0.00;;;;;17.84;53.24;101741.81;2413058;28;45228;-84
2022/07/01 07:27:35;;;;;;;;;2.00;0.50;;;;;17.88;53.08;101750.50;2409083;28;45383;-84
2022/07/01 07:28:45;;;;;;;;;0.00;0.00;;;;;17.86;53.84;101750.59;2403018;28;45219;-83
2022/07/01 07:29:56;;;;;;;;;0.00;0.00;;;;;17.89;54.42;101752.22;2411011;28;48471;-82
2022/07/01 07:31:06;;;;;;;;;0.75;0.25;;;;;17.90;53.76;101756.63;2408436;28;45307;-82
2022/07/01 07:32:16;;;;;;;;;1.00;0.25;;;;;17.93;53.37;101751.13;2403110;28;45351;-82
2022/07/01 07:33:27;;;;;;;;;0.00;0.00;;;;;17.95;53.25;101748.44;2412196;28;44666;-83
2022/07/01 07:34:37;;;;;;;;;0.00;0.00;;;;;17.97;53.28;101760.72;2409733;28;45377;-82
2022/07/01 07:35:48;;;;;;;;;2.50;0.00;;;;;18.01;53.49;101758.75;2411989;28;44624;-83
2022/07/01 07:36:58;;;;;;;;;1.75;1.00;;;;;18.02;53.17;101755.16;2402239;28;47809;-82
2022/07/01 07:38:10;;;;;;;;;0.00;0.00;;;;;18.06;53.31;101747.88;2403497;28;45451;-82
2022/07/01 07:39:20;;;;;;;;;1.00;0.00;;;;;18.07;53.05;101745.16;2411018;28;47120;-82
2022/07/01 07:40:30;;;;;;;;;1.25;0.00;;;;;18.09;52.21;101753.94;2408764;28;44766;-82
2022/07/01 07:41:41;;;;;;;;;0.00;0.00;;;;;18.09;51.96;101753.06;2411539;28;47475;-82
2022/07/01 07:42:51;;;;;;;;;0.00;0.00;;;;;18.10;52.46;101758.31;2406103;28;45441;-83
2022/07/01 07:44:01;;;;;;;;;0.00;0.00;;;;;18.12;52.56;101750.25;2403313;28;45377;-82
2022/07/01 07:45:14;;;;;;;;;0.00;0.00;;;;;18.15;51.79;101749.25;2403578;28;45193;-83
2022/07/01 07:46:24;;;;;;;;;1.00;1.00;;;;;18.14;51.78;101751.03;2402874;28;45493;-83
2022/07/01 07:47:35;;;;;;;;;0.00;0.00;;;;;18.14;50.75;101759.03;2403190;28;45430;-83
2022/07/01 07:48:45;;;;;;;;;0.00;0.00;;;;;18.13;51.84;101751.09;2420800;28;48104;-83
2022/07/01 07:49:56;;;;;;;;;0.00;0.00;;;;;18.13;52.36;101762.59;2416530;28;45310;-83
2022/07/01 07:51:06;;;;;;;;;0.00;0.00;;;;;18.14;50.70;101752.84;2406258;28;46970;-83
2022/07/01 07:52:16;;;;;;;;;1.00;0.00;;;;;18.13;51.70;101746.66;2410514;28;44828;-83
2022/07/01 07:53:27;;;;;;;;;0.25;0.25;;;;;18.15;51.19;101749.25;2407463;28;46388;-84
2022/07/01 07:54:37;;;;;;;;;0.50;0.00;;;;;18.14;51.97;101756.38;2416008;28;45240;-83
2022/07/01 07:55:48;;;;;;;;;0.75;0.00;;;;;18.15;51.11;101754.56;2409538;28;45499;-83
2022/07/01 07:56:58;;;;;;;;;1.25;0.00;;;;;18.16;50.99;101761.59;2412981;28;45473;-83
2022/07/01 07:58:08;;;;;;;;;0.00;0.00;;;;;18.14;51.41;101756.38;2410692;28;47689;-81
2022/07/01 07:59:19;;;;;;;;;0.00;0.00;;;;;18.15;51.47;101750.09;2399585;28;47181;-83
2022/07/01 08:00:29;;;;;;;;;0.50;0.00;;;;;18.14;51.58;101748.38;2397319;28;47246;-83
2022/07/01 08:01:40;;;;;;;;;0.25;0.25;;;;;18.18;51.82;101757.06;2414766;28;45344;-82
2022/07/01 08:02:51;;;;;;;;;0.50;0.00;;;;;18.22;52.05;101761.34;2416267;28;45974;-83
2022/07/01 08:04:01;;;;;;;;;0.00;0.00;;;;;18.25;52.21;101752.34;2412810;28;45449;-81
2022/07/01 08:05:12;;;;;;;;;0.50;0.00;;;;;18.27;52.90;101759.28;2411518;28;47000;-82
2022/07/01 08:06:22;;;;;;;;;0.25;0.25;;;;;18.32;51.86;101751.09;2409712;28;45228;-82
2022/07/01 08:07:37;;;;;;;;;0.25;0.25;;;;;18.36;52.20;101758.00;2411624;28;45207;-82
2022/07/01 08:08:47;;;;;;;;;0.00;0.00;;;;;18.37;51.96;101754.38;2411562;28;44818;-82
2022/07/01 08:09:58;;;;;;;;;0.00;0.00;;;;;18.40;51.76;101761.34;2412052;28;45452;-83
2022/07/01 08:11:08;;;;;;;;;0.00;0.00;;;;;18.42;51.16;101759.50;2421633;28;45398;-83
2022/07/01 08:12:19;;;;;;;;;0.75;0.00;;;;;18.40;51.32;101754.22;2409947;28;45366;-82
2022/07/01 08:13:29;;;;;;;;;0.00;0.00;;;;;18.41;51.81;101761.28;2410714;28;45261;-83
2022/07/01 08:14:40;;;;;;;;;1.00;0.00;;;;;18.42;52.87;101757.66;2414492;28;47274;-82
2022/07/01 08:15:50;;;;;;;;;0.00;0.00;;;;;18.47;52.02;101767.25;2413184;28;45208;-82
2022/07/01 08:17:00;;;;;;;;;0.00;0.00;;;;;18.44;52.04;101761.13;2409800;28;45368;-83
2022/07/01 08:18:10;;;;;;;;;0.00;0.00;;;;;18.47;51.91;101759.25;2410997;28;45287;-83
2022/07/01 08:19:21;;;;;;;;;0.75;0.75;;;;;18.46;51.72;101757.53;2403697;28;46230;-83
2022/07/01 08:20:31;;;;;;;;;0.00;0.00;;;;;18.50;51.72;101767.94;2413677;28;45225;-85
2022/07/01 08:21:42;;;;;;;;;0.50;0.50;;;;;18.51;51.07;101768.81;2421055;28;48116;-83
2022/07/01 08:22:52;;;;;;;;;0.00;0.00;;;;;18.51;51.03;101769.66;2413323;28;45368;-84
2022/07/01 08:24:03;;;;;;;;;0.25;0.25;;;;;18.52;50.99;101765.22;2403086;28;45467;-83
2022/07/01 08:25:13;;;;;;;;;0.00;0.00;;;;;18.53;50.78;101770.44;2404342;28;45259;-83
2022/07/01 08:26:23;;;;;;;;;0.00;0.00;;;;;18.52;51.41;101758.06;2412578;28;46318;-84
2022/07/01 08:27:34;;;;;;;;;0.00;0.00;;;;;18.53;52.14;101767.78;2403850;28;44686;-83
2022/07/01 08:28:44;;;;;;;;;0.25;0.25;;;;;18.55;51.50;101759.72;2402037;28;45553;-83
2022/07/01 08:29:55;;;;;;;;;0.00;0.00;;;;;18.59;51.21;101768.41;2402804;28;45416;-83
2022/07/01 08:31:05;;;;;;;;;0.00;0.00;;;;;18.60;50.94;101771.00;2403067;28;46275;-84
2022/07/01 08:32:16;;;;;;;;;0.00;0.00;;;;;18.62;50.83;101777.09;2407449;28;45378;-83
2022/07/01 08:33:26;;;;;;;;;0.00;0.00;;;;;18.63;50.66;101765.50;2412219;28;45305;-83
2022/07/01 08:34:36;;;;;;;;;0.75;0.25;;;;;18.63;50.35;101765.50;2408944;28;45400;-83
2022/07/01 08:35:47;;;;;;;;;0.00;0.00;;;;;18.65;50.11;101774.28;2402723;28;45648;-83
2022/07/01 08:36:57;;;;;;;;;0.00;0.00;;;;;18.63;49.57;101776.16;2403144;28;45434;-83
2022/07/01 08:38:08;;;;;;;;;1.00;1.00;;;;;18.63;49.92;101769.97;2402891;28;46710;-83
2022/07/01 08:39:18;;;;;;;;;0.75;0.00;;;;;18.61;50.30;101771.84;2403019;28;44684;-83
2022/07/01 08:40:30;;;;;;;;;1.00;0.75;;;;;18.63;50.26;101765.50;2402997;28;45427;-83
2022/07/01 08:41:41;;;;;;;;;1.00;0.00;;;;;18.67;49.79;101776.84;2405248;28;45414;-83
2022/07/01 08:43:02;;;;;;;;;0.00;0.00;;;;;18.67;49.70;101772.41;2411748;28;46359;-84
2022/07/01 08:44:12;;;;;;;;;4.00;0.00;;;;;18.71;49.04;101775.78;2411331;28;44742;-84
2022/07/01 08:45:26;;;;;;;;;1.00;1.00;;;;;18.73;49.34;101787.22;2418826;28;45540;-84
2022/07/01 08:46:36;;;;;;;;;0.00;0.00;;;;;18.73;49.24;101771.22;2405460;28;45311;-84
2022/07/01 08:47:57;;;;;;;;;0.00;0.00;;;;;18.77;48.94;101785.22;2402817;28;45458;-83
2022/07/01 08:49:07;;;;;;;;;1.00;0.00;;;;;18.78;49.46;101779.84;2411603;28;44725;-83
2022/07/01 08:50:18;;;;;;;;;0.00;0.00;;;;;18.81;49.56;101784.16;2408992;28;47050;-83
2022/07/01 08:51:28;;;;;;;;;0.00;0.00;;;;;18.84;49.03;101785.81;2408384;28;44770;-84
2022/07/01 08:52:39;;;;;;;;;0.00;0.00;;;;;18.87;48.96;101777.63;2408638;28;47175;-84
2022/07/01 08:53:49;;;;;;;;;0.00;0.00;;;;;18.89;49.32;101781.94;2402585;28;45233;-83
2022/07/01 08:55:00;;;;;;;;;0.00;0.00;;;;;18.92;49.04;101774.72;2402758;28;46288;-83
2022/07/01 08:57:39;;;;;;;;;1.00;0.00;;;;;18.98;48.65;101782.41;2408323;28;45297;-83
2022/07/01 08:58:50;;;;;;;;;0.00;0.00;;;;;18.98;48.32;101790.41;2412167;28;45299;-83
2022/07/01 09:00:06;;;;;;;;;0.00;0.00;;;;;19.01;48.24;101784.94;2410522;28;45595;-83
2022/07/01 09:01:20;;;;;;;;;0.00;0.00;;;;;19.05;48.42;101785.59;2408649;28;45383;-83
2022/07/01 09:02:51;;;;;;;;;1.00;0.00;;;;;19.08;48.95;101785.47;2402305;28;45499;-83
2022/07/01 09:04:19;;;;;;;;;0.50;0.00;;;;;19.14;48.20;101794.94;2411850;28;45228;-83
2022/07/01 09:05:31;;;;;;;;;1.00;1.00;;;;;19.17;49.18;101786.75;2404095;28;45324;-83
2022/07/01 09:06:41;;;;;;;;;0.00;0.00;;;;;19.23;48.47;101784.69;2402850;28;45379;-83
2022/07/01 09:08:01;;;;;;;;;0.00;0.00;;;;;19.29;47.86;101791.47;2402737;28;45571;-83
2022/07/01 09:09:22;;;;;;;;;2.25;2.25;;;;;19.34;48.82;101786.75;2403041;28;45263;-83
2022/07/01 09:10:34;;;;;;;;;1.25;1.00;;;;;19.40;48.42;101776.72;2402831;28;46374;-83
2022/07/01 09:11:46;;;;;;;;;1.25;1.25;;;;;19.46;49.30;101776.38;2421195;28;45478;-83
2022/07/01 09:12:56;;;;;;;;;1.00;1.00;;;;;19.52;49.16;101786.72;2415315;28;45318;-83
2022/07/01 09:14:11;;;;;;;;;0.75;0.00;;;;;19.59;48.65;101789.03;2402987;28;44631;-83
2022/07/01 09:15:28;;;;;;;;;2.50;1.50;;;;;19.63;48.51;101793.25;2402654;28;45420;-83
2022/07/01 09:16:42;;;;;;;;;2.00;2.00;;;;;19.66;48.07;101788.59;2402950;28;44757;-83
2022/07/01 09:17:55;;;;;;;;;2.00;0.00;;;;;19.70;47.79;101788.44;2402638;28;45613;-83
2022/07/01 09:19:06;;;;;;;;;0.75;0.00;;;;;19.70;46.97;101783.13;2402840;28;45232;-83
2022/07/01 09:20:31;;;;;;;;;1.25;1.25;;;;;19.70;47.55;101788.44;2402769;28;45450;-83
2022/07/01 09:21:42;;;;;;;;;1.00;0.00;;;;;19.68;46.38;101783.19;2402982;28;44678;-83
2022/07/01 09:23:06;;;;;;;;;0.00;0.00;;;;;19.67;46.93;101782.34;2402683;28;45748;-84
2022/07/01 09:24:51;;;;;;;;;0.50;0.50;;;;;19.70;47.62;101791.97;2402846;28;45334;-84
2022/07/01 09:26:01;;;;;;;;;0.00;0.00;;;;;19.76;47.74;101786.28;2382718;28;45323;-84
2022/07/01 09:27:16;;;;;;;;;4.25;4.25;;;;;19.81;47.09;101798.50;2391345;28;45276;-83
2022/07/01 09:28:27;;;;;;;;;0.00;0.00;;;;;19.84;47.02;101788.53;2406413;28;46240;-84
2022/07/01 09:29:41;;;;;;;;;2.00;2.00;;;;;19.88;46.73;101794.53;2409727;28;45220;-83
2022/07/01 09:30:57;;;;;;;;;0.00;0.00;;;;;19.94;47.44;101804.03;2411383;28;47433;-84
2022/07/01 09:32:09;;;;;;;;;0.00;0.00;;;;;19.96;47.51;101792.31;2409553;28;45272;-84
2022/07/01 09:33:26;;;;;;;;;1.00;0.00;;;;;20.01;47.00;101794.72;2413067;28;47189;-83
2022/07/01 09:34:43;;;;;;;;;3.00;2.50;;;;;20.05;46.55;101800.75;2413289;28;44556;-83
2022/07/01 09:35:55;;;;;;;;;1.00;1.00;;;;;20.06;46.51;101794.47;2403887;28;46180;-83
2022/07/01 09:37:06;;;;;;;;;1.00;0.00;;;;;20.06;46.28;101798.00;2409903;28;45411;-83
2022/07/01 09:38:21;;;;;;;;;0.00;0.00;;;;;20.07;44.76;101793.53;2418163;28;46972;-84
2022/07/01 09:39:50;;;;;;;;;0.00;0.00;;;;;20.09;46.22;101807.63;2406124;28;45324;-85
2022/07/01 09:41:03;;;;;;;;;0.00;0.00;;;;;20.07;46.09;101798.84;2408841;28;45548;-84
2022/07/01 09:42:15;;;;;;;;;0.75;0.75;;;;;20.09;45.59;101797.81;2413753;28;45290;-84
2022/07/01 09:43:25;;;;;;;;;0.00;0.00;;;;;20.15;45.93;101796.63;2416048;28;46930;-84
2022/07/01 09:44:51;;;;;;;;;1.00;0.00;;;;;20.16;45.48;101798.38;2419263;28;44606;-84
2022/07/01 09:46:10;;;;;;;;;0.00;0.00;;;;;20.20;46.00;101801.72;2403984;28;46556;-84
2022/07/01 09:47:24;;;;;;;;;0.00;0.00;;;;;20.21;46.34;101801.63;2402083;28;45420;-84
2022/07/01 09:48:35;;;;;;;;;0.00;0.00;;;;;20.27;45.98;101800.44;2396292;28;48533;-84
2022/07/01 09:49:45;;;;;;;;;0.00;0.00;;;;;20.30;45.90;101799.34;2403789;28;45270;-84
2022/07/01 09:50:56;;;;;;;;;0.00;0.00;;;;;20.34;46.00;101796.44;2404220;28;45392;-84
2022/07/01 09:52:06;;;;;;;;;0.25;0.00;;;;;20.38;45.71;101802.47;2404143;28;45154;-84
2022/07/01 09:53:17;;;;;;;;;1.00;0.00;;;;;20.41;45.43;101806.75;2403405;28;47109;-84
2022/07/01 09:54:28;;;;;;;;;0.00;0.00;;;;;20.45;45.29;101814.50;2406220;28;45181;-85
2022/07/01 09:55:39;;;;;;;;;0.00;0.00;;;;;20.48;45.60;101799.25;2410331;28;45517;-84
2022/07/01 09:56:50;;;;;;;;;0.00;0.00;;;;;20.48;45.29;101800.09;2414178;28;45339;-83
2022/07/01 09:58:00;;;;;;;;;0.00;0.00;;;;;20.48;45.40;101808.13;2410110;28;46452;-84
2022/07/01 09:59:11;;;;;;;;;0.00;0.00;;;;;20.46;44.73;101802.00;2404254;28;45310;-84
2022/07/01 10:00:21;;;;;;;;;0.00;0.00;;;;;20.46;44.79;101799.34;2404183;28;46269;-83
2022/07/01 10:01:32;;;;;;;;;0.00;0.00;;;;;20.48;44.48;101799.25;2412498;28;45272;-84
2022/07/01 10:02:43;;;;;;;;;0.00;0.00;;;;;20.48;44.92;101812.59;2410350;28;45453;-84
2022/07/01 10:03:55;;;;;;;;;0.00;0.00;;;;;20.50;44.25;101803.53;2404283;28;45261;-85
2022/07/01 10:05:14;;;;;;;;;2.00;0.00;;;;;20.52;45.19;101800.81;2404230;28;45411;-84
2022/07/01 10:06:31;;;;;;;;;1.25;0.00;;;;;20.57;45.12;101799.56;2408839;28;45430;-83
2022/07/01 10:08:08;;;;;;;;;0.00;0.00;;;;;20.61;44.64;101802.06;2411426;28;46579;-84
2022/07/01 10:09:22;;;;;;;;;0.00;0.00;;;;;20.62;44.16;101799.28;2404432;28;45137;-85
2022/07/01 10:11:14;;;;;;;;;0.00;0.00;;;;;20.63;44.60;101794.81;2421926;28;47166;-84
2022/07/01 10:12:37;;;;;;;;;0.00;0.00;;;;;20.64;44.58;101796.53;2412723;28;45185;-84
2022/07/01 10:13:48;;;;;;;;;1.00;0.00;;;;;20.66;44.69;101794.63;2408623;28;46273;-85
2022/07/01 10:15:00;;;;;;;;;0.00;0.00;;;;;20.68;44.71;101804.28;2404173;28;45508;-84
2022/07/01 10:16:11;;;;;;;;;0.00;0.00;;;;;20.70;44.96;101798.84;2412540;28;47352;-84
2022/07/01 10:17:29;;;;;;;;;0.00;0.00;;;;;20.74;45.15;101791.50;2414155;28;45510;-84
2022/07/01 10:18:40;;;;;;;;;0.00;0.00;;;;;20.79;45.38;101800.94;2403963;28;45390;-84
2022/07/01 10:19:55;;;;;;;;;0.25;0.00;;;;;20.86;44.95;101804.13;2404190;28;45619;-85
2022/07/01 10:21:06;;;;;;;;;0.00;0.00;;;;;20.92;45.13;101802.88;2404012;28;45193;-84
2022/07/01 10:22:29;;;;;;;;;0.00;0.00;;;;;20.99;44.72;101808.75;2404163;28;44738;-84
2022/07/01 10:23:42;;;;;;;;;0.00;0.00;;;;;21.02;45.08;101811.25;2412538;28;48017;-84
2022/07/01 10:24:52;;;;;;;;;0.00;0.00;;;;;21.06;45.03;101807.44;2409966;28;44565;-84
2022/07/01 10:26:05;;;;;;;;;0.00;0.00;;;;;21.09;45.28;101812.59;2402933;28;47567;-84
2022/07/01 10:27:23;;;;;;;;;0.00;0.00;;;;;21.13;44.50;101803.44;2403555;28;45214;-85
2022/07/01 10:28:43;;;;;;;;;0.00;0.00;;;;;21.14;44.17;101805.16;2403807;28;46281;-84
2022/07/01 10:30:14;;;;;;;;;0.00;0.00;;;;;21.16;44.53;101812.22;2404155;28;45283;-85
2022/07/01 10:31:36;;;;;;;;;0.00;0.00;;;;;21.12;43.89;101801.72;2403879;28;45242;-84
2022/07/01 10:32:48;;;;;;;;;0.00;0.00;;;;;21.11;44.54;101810.66;2404105;28;45461;-84
2022/07/01 10:33:59;;;;;;;;;0.50;0.50;;;;;21.13;43.84;101813.28;2403932;28;45469;-84
2022/07/01 10:35:09;;;;;;;;;0.00;0.00;;;;;21.12;44.05;101809.72;2404334;28;44820;-84
2022/07/01 10:36:22;;;;;;;;;0.00;0.00;;;;;21.12;44.68;101799.03;2403571;28;45446;-84
2022/07/01 10:37:33;;;;;;;;;0.00;0.00;;;;;21.12;44.81;101800.84;2407254;28;45379;-83
2022/07/01 10:39:07;;;;;;;;;0.00;0.00;;;;;21.17;45.10;101800.56;2405011;28;45274;-84
2022/07/01 10:40:17;;;;;;;;;0.00;0.00;;;;;21.20;44.45;101797.69;2403644;28;44769;-84
2022/07/01 10:41:32;;;;;;;;;0.00;0.00;;;;;21.24;45.05;101802.75;2407905;28;45398;-84
2022/07/01 10:42:59;;;;;;;;;0.00;0.00;;;;;21.29;43.73;101807.81;2403062;28;45293;-84
2022/07/01 10:44:14;;;;;;;;;0.50;0.00;;;;;21.31;43.34;101794.38;2409968;28;47362;-84
2022/07/01 10:45:24;;;;;;;;;0.00;0.00;;;;;21.33;44.18;101804.03;2409602;28;45240;-84
2022/07/01 10:46:44;;;;;;;;;0.00;0.00;;;;;21.37;43.42;101791.31;2403518;28;46507;-84
2022/07/01 10:48:20;;;;;;;;;0.00;0.00;;;;;21.42;43.56;101796.38;2405883;28;45157;-84
2022/07/01 10:49:37;;;;;;;;;0.00;0.00;;;;;21.43;43.86;101800.78;2410448;28;46421;-84
2022/07/01 10:50:47;;;;;;;;;0.00;0.00;;;;;21.43;43.69;101798.97;2405992;28;45165;-84
2022/07/01 10:51:58;;;;;;;;;0.00;0.00;;;;;21.45;44.39;101801.53;2412821;28;46549;-84
2022/07/01 10:53:08;;;;;;;;;0.00;0.00;;;;;21.47;43.17;101804.97;2406543;28;45512;-84
2022/07/01 10:54:34;;;;;;;;;1.25;0.00;;;;;21.50;43.54;101803.91;2403609;28;46302;-84
2022/07/01 10:55:51;;;;;;;;;0.00;0.00;;;;;21.48;43.23;101804.84;2403764;28;45258;-85
2022/07/01 10:57:22;;;;;;;;;0.00;0.00;;;;;21.51;43.36;101801.13;2403558;28;46529;-85
2022/07/01 10:58:37;;;;;;;;;0.00;0.00;;;;;21.52;43.58;101805.53;2403683;28;44567;-84
2022/07/01 10:59:48;;;;;;;;;0.00;0.00;;;;;21.54;43.10;101800.06;2403664;28;45463;-84
2022/07/01 11:00:58;;;;;;;;;0.00;0.00;;;;;21.54;43.45;101798.25;2403964;28;45232;-84
2022/07/01 11:02:15;;;;;;;;;0.50;0.00;;;;;21.54;42.97;101800.94;2403644;28;46473;-84
2022/07/01 11:03:25;;;;;;;;;0.00;0.00;;;;;21.55;42.96;101807.16;2403684;28;45165;-84
2022/07/01 11:04:39;;;;;;;;;1.50;0.00;;;;;21.52;42.63;101800.19;2403667;28;45304;-84
2022/07/01 11:05:53;;;;;;;;;0.00;0.00;;;;;21.51;42.96;101806.47;2405491;28;45232;-84
2022/07/01 11:07:04;;;;;;;;;1.00;0.00;;;;;21.50;42.80;101804.78;2419368;28;48224;-85